Terminal Aerodrome Forecast
Issued by NWS Cleveland, OH

Home | Current Version | Previous Version | Text Only | Print | Product List | Glossary On
Versions: 1 2 3 4 5 6 7 8 9 10 11 12 13 14 15 16 17 18 19 20 21 22 23 24 25
000
FTUS41 KCLE 302335
TAFCLE
TAF
KCLE 302335Z 3100/0106 01005KT P6SM FEW060 BKN150
      TEMPO 3104/3108 5SM -SHRA BKN025
     FM311200 22005KT 5SM -SHRA OVC025
     FM311800 33008KT P6SM OVC035=

USA.gov is the U.S. government's official web portal to all federal, state and local government web resources and services.